createdAt,value
2022-07-30T00:00:36.778Z,101162.25
2022-07-30T00:03:05.710Z,101159.25
2022-07-30T00:05:33.572Z,101162.25
2022-07-30T00:08:01.597Z,101157.09
2022-07-30T00:10:29.716Z,101153.78
2022-07-30T00:12:58.158Z,101154.97
2022-07-30T00:15:26.426Z,101156.97
2022-07-30T00:17:55.664Z,101159.97
2022-07-30T00:20:24.031Z,101155.00
2022-07-30T00:22:55.916Z,101154.69
2022-07-30T00:25:24.089Z,101161.16
2022-07-30T00:27:52.096Z,101153.34
2022-07-30T00:30:20.158Z,101159.00
2022-07-30T00:32:48.097Z,101158.34
2022-07-30T00:35:17.332Z,101158.00
2022-07-30T00:37:46.092Z,101160.00
2022-07-30T00:40:14.754Z,101156.50
2022-07-30T00:42:45.170Z,101153.84
2022-07-30T00:45:14.405Z,101159.50
2022-07-30T00:47:43.110Z,101163.81
2022-07-30T00:50:13.307Z,101153.53
2022-07-30T00:52:43.855Z,101150.22
2022-07-30T00:55:15.406Z,101149.56
2022-07-30T00:57:44.110Z,101151.34
2022-07-30T01:00:14.870Z,101143.38
2022-07-30T01:02:42.987Z,101153.19
2022-07-30T01:05:11.995Z,101155.84
2022-07-30T01:07:40.055Z,101142.72
2022-07-30T01:10:11.932Z,101141.91
2022-07-30T01:12:40.614Z,101140.06
2022-07-30T01:15:10.790Z,101138.59
2022-07-30T01:17:39.038Z,101141.41
2022-07-30T01:20:10.773Z,101140.56
2022-07-30T01:22:49.005Z,101144.38
2022-07-30T01:25:31.287Z,101141.03
2022-07-30T01:28:04.965Z,101136.91
2022-07-30T01:30:39.617Z,101139.72
2022-07-30T01:33:11.728Z,101141.88
2022-07-30T01:35:41.561Z,101148.66
2022-07-30T01:38:12.507Z,101139.22
2022-07-30T01:40:41.124Z,101139.38
2022-07-30T01:43:12.262Z,101139.88
2022-07-30T01:45:44.180Z,101135.53
2022-07-30T01:48:15.803Z,101136.56
2022-07-30T01:50:46.603Z,101128.75
2022-07-30T01:53:18.068Z,101127.94
2022-07-30T01:55:46.847Z,101133.41
2022-07-30T01:58:19.514Z,101134.56
2022-07-30T02:00:50.818Z,101131.25
2022-07-30T02:03:18.920Z,101136.72
2022-07-30T02:05:53.769Z,101132.38
2022-07-30T02:08:27.730Z,101148.50
2022-07-30T02:11:03.410Z,101145.00
2022-07-30T02:13:35.263Z,101133.72
2022-07-30T02:16:12.498Z,101141.69
2022-07-30T02:18:49.421Z,101151.31
2022-07-30T02:21:22.076Z,101140.03
2022-07-30T02:23:51.740Z,101128.06
2022-07-30T02:26:24.160Z,101141.53
2022-07-30T02:28:58.472Z,101141.53
2022-07-30T02:31:29.252Z,101132.69
2022-07-30T02:34:02.012Z,101144.16
2022-07-30T02:36:32.342Z,101132.91
2022-07-30T02:39:03.011Z,101126.06
2022-07-30T02:41:32.951Z,101129.88
2022-07-30T02:44:03.363Z,101123.91
2022-07-30T02:46:32.679Z,101126.56
2022-07-30T02:49:28.505Z,101129.38
2022-07-30T02:51:57.655Z,101124.38
2022-07-30T02:54:26.777Z,101118.41
2022-07-30T02:56:57.468Z,101125.06
2022-07-30T02:59:29.197Z,101113.75
2022-07-30T03:01:58.689Z,101116.56
2022-07-30T03:04:27.020Z,101117.56
2022-07-30T03:06:55.919Z,101118.72
2022-07-30T03:09:24.158Z,101119.03
2022-07-30T03:11:55.011Z,101121.03
2022-07-30T03:14:23.190Z,101118.69
2022-07-30T03:16:59.623Z,101121.47
2022-07-30T03:19:32.342Z,101121.63
2022-07-30T03:22:04.423Z,101122.16
2022-07-30T03:24:34.333Z,101122.47
2022-07-30T03:27:03.804Z,101129.56
2022-07-30T03:29:33.948Z,101129.56
2022-07-30T03:32:05.065Z,101128.09
2022-07-30T03:34:36.003Z,101127.41
2022-07-30T03:37:06.434Z,101135.53
2022-07-30T03:39:37.360Z,101129.38
2022-07-30T03:42:07.740Z,101133.88
2022-07-30T03:44:37.064Z,101141.81
2022-07-30T03:47:09.660Z,101138.50
2022-07-30T03:49:44.371Z,101130.03
2022-07-30T03:52:12.807Z,101131.03
2022-07-30T03:54:41.923Z,101134.00
2022-07-30T03:57:28.792Z,101137.81
2022-07-30T03:59:56.894Z,101140.63
2022-07-30T04:02:26.241Z,101140.78
2022-07-30T04:05:17.925Z,101144.91
2022-07-30T04:07:47.329Z,101151.75
2022-07-30T04:10:17.912Z,101144.59
2022-07-30T04:13:09.821Z,101151.59
2022-07-30T04:16:40.235Z,101147.91
2022-07-30T04:18:39.844Z,101154.91
2022-07-30T04:21:17.100Z,101165.50
2022-07-30T04:24:02.278Z,101156.56
2022-07-30T04:26:35.654Z,101165.19
2022-07-30T04:29:07.459Z,101173.00
2022-07-30T04:31:40.508Z,101180.81
2022-07-30T04:34:29.436Z,101180.81
2022-07-30T04:36:58.014Z,101179.63
2022-07-30T04:39:26.594Z,101183.00
2022-07-30T04:41:55.380Z,101182.13
2022-07-30T04:44:36.501Z,101176.66
2022-07-30T04:47:25.707Z,101179.00
2022-07-30T04:50:15.125Z,101178.03
2022-07-30T04:52:45.471Z,101184.00
2022-07-30T04:55:19.948Z,101182.84
2022-07-30T04:57:51.598Z,101178.91
2022-07-30T05:00:20.103Z,101180.44
2022-07-30T05:02:49.700Z,101183.91
2022-07-30T05:05:20.504Z,101181.91
2022-07-30T05:07:50.754Z,101172.13
2022-07-30T05:10:19.316Z,101173.78
2022-07-30T05:12:47.413Z,101169.16
2022-07-30T05:15:17.664Z,101184.91
2022-07-30T05:17:46.063Z,101175.97
2022-07-30T05:20:14.843Z,101180.97
2022-07-30T05:23:05.962Z,101174.47
2022-07-30T05:25:34.219Z,101174.97
2022-07-30T05:28:14.978Z,101173.84
2022-07-30T05:30:44.032Z,101177.16
2022-07-30T05:33:17.363Z,101170.88
2022-07-30T05:35:45.804Z,101171.53
2022-07-30T05:38:15.578Z,101163.41
2022-07-30T05:40:56.051Z,101170.22
2022-07-30T05:43:59.016Z,101177.84
2022-07-30T05:46:27.194Z,101177.53
2022-07-30T05:48:55.322Z,101179.69
2022-07-30T05:51:23.631Z,101183.34
2022-07-30T05:53:53.029Z,101184.53
2022-07-30T05:56:56.291Z,101186.72
2022-07-30T05:59:35.540Z,101195.84
2022-07-30T06:02:24.250Z,101195.50
2022-07-30T06:05:11.251Z,101188.19
2022-07-30T06:07:39.204Z,101195.84
2022-07-30T06:10:09.571Z,101194.69
2022-07-30T06:12:39.093Z,101202.16
2022-07-30T06:15:08.456Z,101198.22
2022-07-30T06:17:43.430Z,101201.22
2022-07-30T06:20:28.724Z,101185.41
2022-07-30T06:23:08.093Z,101192.91
2022-07-30T06:26:12.470Z,101192.72
2022-07-30T06:28:41.138Z,101199.88
2022-07-30T06:31:23.872Z,101199.88
2022-07-30T06:33:51.707Z,101203.34
2022-07-30T06:36:20.596Z,101210.47
2022-07-30T06:39:11.183Z,101206.31
2022-07-30T06:41:55.733Z,101208.94
2022-07-30T06:44:23.702Z,101202.44
2022-07-30T06:47:09.679Z,101204.09
2022-07-30T06:49:40.216Z,101207.03
2022-07-30T06:52:11.874Z,101211.97
2022-07-30T06:54:47.856Z,101218.69
2022-07-30T06:57:23.017Z,101215.13
2022-07-30T06:59:56.508Z,101218.50
2022-07-30T07:02:45.945Z,101226.72
2022-07-30T07:05:15.059Z,101218.94
2022-07-30T07:07:58.382Z,101225.84
2022-07-30T07:10:31.226Z,101224.47
2022-07-30T07:13:23.359Z,101231.19
2022-07-30T07:15:51.501Z,101228.25
2022-07-30T07:18:22.337Z,101227.81
2022-07-30T07:20:58.341Z,101219.53
2022-07-30T07:23:26.329Z,101221.94
2022-07-30T07:26:13.565Z,101224.88
2022-07-30T07:28:43.394Z,101220.81
2022-07-30T07:32:06.002Z,101216.22
2022-07-30T07:34:01.114Z,101216.34
2022-07-30T07:36:29.657Z,101215.19
2022-07-30T07:38:57.513Z,101220.25
2022-07-30T07:41:26.288Z,101221.28
2022-07-30T07:43:55.554Z,101222.28
2022-07-30T07:46:33.685Z,101218.03
2022-07-30T07:49:03.891Z,101222.84
2022-07-30T07:51:52.474Z,101229.16
2022-07-30T07:54:23.141Z,101237.03
2022-07-30T07:56:56.603Z,101235.69
2022-07-30T07:59:46.473Z,101233.63
2022-07-30T08:02:19.647Z,101234.78
2022-07-30T08:04:57.005Z,101230.56
2022-07-30T08:07:49.892Z,101238.06
2022-07-30T08:10:36.560Z,101237.72
2022-07-30T08:13:51.585Z,101225.06
2022-07-30T08:16:38.637Z,101228.41
2022-07-30T08:19:38.918Z,101234.69
2022-07-30T08:22:18.274Z,101227.41
2022-07-30T08:24:46.400Z,101218.28
2022-07-30T08:27:14.425Z,101225.09
2022-07-30T08:29:43.462Z,101226.25
2022-07-30T08:32:12.932Z,101233.66
2022-07-30T08:34:42.162Z,101233.03
2022-07-30T08:37:10.243Z,101230.53
2022-07-30T08:39:42.654Z,101231.53
2022-07-30T08:42:11.003Z,101225.53
2022-07-30T08:44:40.150Z,101230.88
2022-07-30T08:47:10.926Z,101237.03
2022-07-30T08:50:04.439Z,101234.53
2022-07-30T08:52:37.609Z,101230.13
2022-07-30T08:55:08.398Z,101230.94
2022-07-30T08:57:37.024Z,101230.09
2022-07-30T09:00:08.719Z,101231.28
2022-07-30T09:02:36.759Z,101232.50
2022-07-30T09:05:08.551Z,101234.19
2022-07-30T09:07:38.107Z,101242.91
2022-07-30T09:10:13.068Z,101227.75
2022-07-30T09:12:42.295Z,101237.09
2022-07-30T09:15:14.225Z,101236.34
2022-07-30T09:17:48.086Z,101238.75
2022-07-30T09:20:17.923Z,101236.13
2022-07-30T09:22:47.704Z,101230.81
2022-07-30T09:25:49.702Z,101235.97
2022-07-30T09:28:36.170Z,101233.75
2022-07-30T09:31:17.423Z,101245.75
2022-07-30T09:34:04.284Z,101231.81
2022-07-30T09:36:52.470Z,101226.19
2022-07-30T09:39:30.409Z,101221.25
2022-07-30T09:42:19.811Z,101224.75
2022-07-30T09:44:48.248Z,101220.69
2022-07-30T09:47:31.665Z,101226.59
2022-07-30T09:50:07.387Z,101228.56
2022-07-30T09:52:43.954Z,101220.63
2022-07-30T09:55:13.573Z,101227.75
2022-07-30T09:57:58.723Z,101219.84
2022-07-30T10:00:30.076Z,101221.91
2022-07-30T10:03:33.534Z,101224.53
2022-07-30T10:06:33.769Z,101219.69
2022-07-30T10:09:14.026Z,101222.50
2022-07-30T10:11:45.306Z,101214.25
2022-07-30T10:14:15.202Z,101220.72
2022-07-30T10:16:43.961Z,101226.13
2022-07-30T10:19:18.023Z,101223.03
2022-07-30T10:22:07.384Z,101230.88
2022-07-30T10:25:06.394Z,101226.34
2022-07-30T10:28:13.204Z,101234.41
2022-07-30T10:30:42.052Z,101235.22
2022-07-30T10:33:34.498Z,101231.09
2022-07-30T10:36:02.754Z,101225.94
2022-07-30T10:38:34.485Z,101236.47
2022-07-30T10:41:17.070Z,101230.91
2022-07-30T10:44:19.584Z,101228.34
2022-07-30T10:46:58.209Z,101216.47
2022-07-30T10:49:26.799Z,101222.41
2022-07-30T10:51:56.068Z,101222.97
2022-07-30T10:54:40.231Z,101220.88
2022-07-30T10:57:14.989Z,101218.81
2022-07-30T11:00:17.793Z,101214.88
2022-07-30T11:03:16.078Z,101216.56
2022-07-30T11:05:45.915Z,101218.69
2022-07-30T11:08:31.909Z,101215.78
2022-07-30T11:11:19.442Z,101209.75
2022-07-30T11:13:57.575Z,101219.41
2022-07-30T11:16:46.354Z,101218.38
2022-07-30T11:19:53.250Z,101219.41
2022-07-30T11:22:25.317Z,101219.25
2022-07-30T11:24:53.475Z,101226.06
2022-07-30T11:27:41.816Z,101222.75
2022-07-30T11:30:34.228Z,101220.19
2022-07-30T11:33:32.047Z,101219.38
2022-07-30T11:36:12.547Z,101216.34
2022-07-30T11:39:05.155Z,101214.84
2022-07-30T11:41:35.265Z,101217.28
2022-07-30T11:44:31.542Z,101226.94
2022-07-30T11:47:00.896Z,101225.81
2022-07-30T11:49:36.423Z,101227.88
2022-07-30T11:52:05.026Z,101222.97
2022-07-30T11:54:33.180Z,101222.19
2022-07-30T11:57:04.562Z,101228.28
2022-07-30T11:59:32.906Z,101231.56
2022-07-30T12:02:02.601Z,101227.16
2022-07-30T12:04:31.084Z,101217.16
2022-07-30T12:06:59.036Z,101221.34
2022-07-30T12:09:29.518Z,101215.09
2022-07-30T12:11:57.673Z,101220.16
2022-07-30T12:14:25.885Z,101229.19
2022-07-30T12:16:55.283Z,101228.53
2022-07-30T12:19:24.649Z,101221.84
2022-07-30T12:21:53.575Z,101220.34
2022-07-30T12:24:27.067Z,101217.34
2022-07-30T12:27:05.741Z,101222.03
2022-07-30T12:29:34.772Z,101222.63
2022-07-30T12:32:02.829Z,101225.91
2022-07-30T12:34:32.166Z,101228.72
2022-07-30T12:37:08.601Z,101224.19
2022-07-30T12:39:36.501Z,101220.63
2022-07-30T12:42:04.857Z,101226.19
2022-07-30T12:44:38.080Z,101228.91
2022-07-30T12:47:07.676Z,101226.56
2022-07-30T12:49:49.444Z,101223.19
2022-07-30T12:52:28.750Z,101218.16
2022-07-30T12:55:06.630Z,101224.13
2022-07-30T12:57:57.435Z,101229.34
2022-07-30T13:00:26.632Z,101220.41
2022-07-30T13:02:55.070Z,101213.19
2022-07-30T13:05:46.803Z,101216.34
2022-07-30T13:08:14.861Z,101215.28
2022-07-30T13:10:56.041Z,101218.41
2022-07-30T13:13:24.174Z,101221.63
2022-07-30T13:16:04.287Z,101214.69
2022-07-30T13:18:35.191Z,101214.50
2022-07-30T13:21:09.341Z,101213.84
2022-07-30T13:23:39.005Z,101215.63
2022-07-30T13:26:10.241Z,101219.16
2022-07-30T13:28:38.524Z,101218.56
2022-07-30T13:31:07.772Z,101212.34
2022-07-30T13:33:37.394Z,101209.97
2022-07-30T13:36:07.691Z,101218.06
2022-07-30T13:38:36.206Z,101217.91
2022-07-30T13:41:05.594Z,101222.53
2022-07-30T13:43:34.082Z,101217.19
2022-07-30T13:46:03.124Z,101209.78
2022-07-30T13:48:31.733Z,101224.47
2022-07-30T13:51:01.489Z,101221.94
2022-07-30T13:53:30.883Z,101212.47
2022-07-30T13:56:00.222Z,101215.81
2022-07-30T13:58:31.801Z,101219.56
2022-07-30T14:01:03.960Z,101218.13
2022-07-30T14:03:32.324Z,101215.22
2022-07-30T14:06:10.162Z,101201.22
2022-07-30T14:08:40.586Z,101201.06
2022-07-30T14:11:08.676Z,101205.44
2022-07-30T14:13:36.550Z,101199.41
2022-07-30T14:16:10.725Z,101192.94
2022-07-30T14:18:53.350Z,101191.69
2022-07-30T14:21:31.356Z,101187.09
2022-07-30T14:24:01.016Z,101188.88
2022-07-30T14:26:30.211Z,101190.47
2022-07-30T14:29:09.096Z,101190.19
2022-07-30T14:31:37.331Z,101195.38
2022-07-30T14:34:05.709Z,101192.84
2022-07-30T14:36:33.853Z,101186.94
2022-07-30T14:39:05.013Z,101187.75
2022-07-30T14:41:33.978Z,101177.41
2022-07-30T14:44:04.843Z,101185.06
2022-07-30T14:46:32.972Z,101175.56
2022-07-30T14:49:00.910Z,101174.72
2022-07-30T14:51:36.540Z,101177.06
2022-07-30T14:54:07.275Z,101184.31
2022-07-30T14:56:35.292Z,101181.78
2022-07-30T14:59:04.740Z,101184.97
2022-07-30T15:04:29.121Z,101189.03
2022-07-30T15:06:57.295Z,101194.00
2022-07-30T15:09:26.724Z,101184.53
2022-07-30T15:12:09.262Z,101186.13
2022-07-30T15:14:38.524Z,101186.78
2022-07-30T15:17:08.016Z,101192.53
2022-07-30T15:19:36.723Z,101193.75
2022-07-30T15:22:06.958Z,101193.75
2022-07-30T15:24:37.647Z,101196.84
2022-07-30T15:27:05.930Z,101196.19
2022-07-30T15:29:33.728Z,101186.91
2022-07-30T15:32:02.253Z,101187.09
2022-07-30T15:34:34.506Z,101189.38
2022-07-30T15:37:03.331Z,101186.25
2022-07-30T15:39:33.704Z,101175.94
2022-07-30T15:42:06.869Z,101174.47
2022-07-30T15:44:35.984Z,101170.00
2022-07-30T15:47:04.063Z,101164.03
2022-07-30T15:49:32.398Z,101168.00
2022-07-30T15:52:01.254Z,101171.72
2022-07-30T15:54:29.528Z,101169.66
2022-07-30T15:57:01.452Z,101175.44
2022-07-30T15:59:31.815Z,101173.78
2022-07-30T16:02:01.042Z,101175.84
2022-07-30T16:04:31.290Z,101183.91
2022-07-30T16:07:00.635Z,101176.47
2022-07-30T16:09:28.899Z,101175.84
2022-07-30T16:11:57.410Z,101166.53
2022-07-30T16:14:26.090Z,101165.69
2022-07-30T16:16:55.433Z,101172.06
2022-07-30T16:19:23.727Z,101163.78
2022-07-30T16:21:53.296Z,101170.81
2022-07-30T16:24:21.750Z,101168.19
2022-07-30T16:26:50.756Z,101166.56
2022-07-30T16:29:19.054Z,101168.84
2022-07-30T16:31:47.830Z,101164.69
2022-07-30T16:34:22.939Z,101164.50
2022-07-30T16:36:55.331Z,101173.81
2022-07-30T16:39:23.242Z,101174.63
2022-07-30T16:41:52.890Z,101171.53
2022-07-30T16:44:21.263Z,101170.91
2022-07-30T16:46:49.443Z,101179.78
2022-07-30T16:49:19.295Z,101175.03
2022-07-30T16:51:47.465Z,101182.06
2022-07-30T16:54:15.764Z,101180.19
2022-07-30T16:56:44.062Z,101175.44
2022-07-30T16:59:14.587Z,101178.72
2022-07-30T17:01:42.610Z,101176.91
2022-07-30T17:04:10.683Z,101173.78
2022-07-30T17:06:41.242Z,101185.97
2022-07-30T17:09:09.413Z,101181.66
2022-07-30T17:11:47.106Z,101182.06
2022-07-30T17:14:16.569Z,101187.63
2022-07-30T17:16:47.059Z,101184.97
2022-07-30T17:19:15.329Z,101187.00
2022-07-30T17:21:44.953Z,101194.84
2022-07-30T17:24:13.879Z,101190.75
2022-07-30T17:26:44.040Z,101195.50
2022-07-30T17:29:14.786Z,101199.41
2022-07-30T17:31:45.260Z,101189.09
2022-07-30T17:34:14.819Z,101202.09
2022-07-30T17:36:52.261Z,101204.56
2022-07-30T17:40:04.302Z,101198.09
2022-07-30T17:42:09.870Z,101202.59
2022-07-30T17:44:38.131Z,101205.06
2022-07-30T17:47:09.761Z,101208.94
2022-07-30T17:49:40.578Z,101202.38
2022-07-30T17:52:10.121Z,101204.78
2022-07-30T17:54:38.769Z,101201.63
2022-07-30T17:57:07.187Z,101209.84
2022-07-30T17:59:35.330Z,101209.22
2022-07-30T18:02:04.705Z,101208.56
2022-07-30T18:04:33.439Z,101207.28
2022-07-30T18:07:01.823Z,101210.78
2022-07-30T18:09:36.238Z,101207.69
2022-07-30T18:12:08.093Z,101211.56
2022-07-30T18:14:36.046Z,101209.25
2022-07-30T18:17:05.319Z,101210.41
2022-07-30T18:19:33.247Z,101211.19
2022-07-30T18:22:02.863Z,101200.59
2022-07-30T18:24:32.640Z,101211.25
2022-07-30T18:27:00.701Z,101219.63
2022-07-30T18:29:28.800Z,101211.53
2022-07-30T18:31:56.950Z,101215.84
2022-07-30T18:34:25.021Z,101211.44
2022-07-30T18:36:53.333Z,101212.22
2022-07-30T18:39:21.317Z,101221.19
2022-07-30T18:41:51.488Z,101222.16
2022-07-30T18:44:19.364Z,101226.25
2022-07-30T18:46:47.429Z,101224.94
2022-07-30T18:49:35.696Z,101231.50
2022-07-30T18:52:04.357Z,101237.41
2022-07-30T18:54:32.662Z,101243.13
2022-07-30T18:57:02.086Z,101238.34
2022-07-30T18:59:30.380Z,101248.94
2022-07-30T19:01:58.588Z,101245.00
2022-07-30T19:04:26.789Z,101246.38
2022-07-30T19:06:54.984Z,101247.97
2022-07-30T19:09:23.009Z,101255.56
2022-07-30T19:11:50.988Z,101254.81
2022-07-30T19:14:20.430Z,101262.72
2022-07-30T19:16:48.474Z,101256.50
2022-07-30T19:19:17.369Z,101261.56
2022-07-30T19:21:45.324Z,101265.13
2022-07-30T19:24:13.450Z,101272.50
2022-07-30T19:26:41.280Z,101270.38
2022-07-30T19:29:09.820Z,101272.75
2022-07-30T19:31:41.695Z,101268.97
2022-07-30T19:34:10.997Z,101274.88
2022-07-30T19:36:39.893Z,101279.38
2022-07-30T19:39:09.432Z,101276.06
2022-07-30T19:41:41.044Z,101272.75
2022-07-30T19:44:09.810Z,101282.97
2022-07-30T19:46:41.496Z,101289.00
2022-07-30T19:49:10.768Z,101285.03
2022-07-30T19:52:10.768Z,101287.06
2022-07-30T19:54:26.939Z,101288.28
2022-07-30T19:56:54.973Z,101282.25
2022-07-30T19:59:45.638Z,101287.13
2022-07-30T20:02:13.752Z,101284.81
2022-07-30T20:04:43.699Z,101286.69
2022-07-30T20:07:12.168Z,101280.69
2022-07-30T20:09:42.957Z,101282.53
2022-07-30T20:12:12.937Z,101286.03
2022-07-30T20:14:43.692Z,101286.84
2022-07-30T20:17:13.187Z,101287.88
2022-07-30T20:19:47.489Z,101287.38
2022-07-30T20:22:16.011Z,101281.75
2022-07-30T20:24:45.271Z,101295.28
2022-07-30T20:27:35.524Z,101295.78
2022-07-30T20:30:01.284Z,101289.16
2022-07-30T20:32:31.048Z,101283.53
2022-07-30T20:34:59.667Z,101284.69
2022-07-30T20:37:28.122Z,101287.06
2022-07-30T20:39:56.413Z,101290.44
2022-07-30T20:42:24.702Z,101287.13
2022-07-30T20:44:54.448Z,101291.66
2022-07-30T20:47:34.892Z,101289.31
2022-07-30T20:50:10.944Z,101283.34
2022-07-30T20:52:40.706Z,101287.19
2022-07-30T20:55:09.619Z,101284.88
2022-07-30T20:57:51.444Z,101282.56
2022-07-30T21:00:27.633Z,101284.75
2022-07-30T21:02:55.570Z,101271.97
2022-07-30T21:05:27.011Z,101271.47
2022-07-30T21:07:56.576Z,101271.00
2022-07-30T21:10:26.131Z,101271.16
2022-07-30T21:12:58.748Z,101269.69
2022-07-30T21:15:32.813Z,101273.53
2022-07-30T21:18:01.632Z,101273.22
2022-07-30T21:20:31.946Z,101269.06
2022-07-30T21:23:10.105Z,101269.75
2022-07-30T21:26:01.013Z,101267.78
2022-07-30T21:28:29.393Z,101270.13
2022-07-30T21:30:57.774Z,101271.63
2022-07-30T21:33:31.068Z,101273.00
2022-07-30T21:36:01.557Z,101267.38
2022-07-30T21:38:31.932Z,101273.03
2022-07-30T21:41:01.944Z,101271.72
2022-07-30T21:43:33.548Z,101268.72
2022-07-30T21:46:03.859Z,101262.28
2022-07-30T21:48:34.569Z,101274.25
2022-07-30T21:51:03.861Z,101273.75
2022-07-30T21:53:45.832Z,101269.13
2022-07-30T21:56:14.885Z,101278.47
2022-07-30T21:58:44.407Z,101269.34
2022-07-30T22:04:07.971Z,101274.50
2022-07-30T22:06:39.763Z,101277.47
2022-07-30T22:09:24.349Z,101271.47
2022-07-30T22:11:56.976Z,101268.16
2022-07-30T22:14:29.629Z,101264.81
2022-07-30T22:16:59.893Z,101268.66
2022-07-30T22:19:28.453Z,101281.47
2022-07-30T22:21:57.883Z,101279.13
2022-07-30T22:24:30.993Z,101280.31
2022-07-30T22:27:01.323Z,101272.66
2022-07-30T22:29:38.046Z,101267.69
2022-07-30T22:32:07.993Z,101268.81
2022-07-30T22:34:36.402Z,101270.81
2022-07-30T22:37:09.259Z,101269.34
2022-07-30T22:39:50.647Z,101269.84
2022-07-30T22:42:24.134Z,101274.66
2022-07-30T22:44:53.321Z,101263.69
2022-07-30T22:47:50.767Z,101271.16
2022-07-30T22:50:11.670Z,101269.84
2022-07-30T22:52:50.110Z,101267.34
2022-07-30T22:55:27.813Z,101262.34
2022-07-30T22:57:58.209Z,101266.19
2022-07-30T23:00:28.588Z,101271.84
2022-07-30T23:02:57.763Z,101262.84
2022-07-30T23:05:26.704Z,101259.84
2022-07-30T23:07:56.390Z,101252.34
2022-07-30T23:10:27.623Z,101258.97
2022-07-30T23:12:31.671Z,101279.47
2022-07-30T23:12:56.256Z,101257.78
2022-07-30T23:15:24.909Z,101253.00
2022-07-30T23:17:53.164Z,101257.97
2022-07-30T23:20:22.798Z,101257.44
2022-07-30T23:22:51.541Z,101252.94
2022-07-30T23:25:20.701Z,101255.41
2022-07-30T23:27:48.474Z,101246.25
2022-07-30T23:30:16.340Z,101251.06
2022-07-30T23:32:44.459Z,101248.88
2022-07-30T23:35:12.484Z,101245.56
2022-07-30T23:37:48.439Z,101245.06
2022-07-30T23:40:18.695Z,101246.34
2022-07-30T23:42:50.261Z,101243.19
2022-07-30T23:45:18.700Z,101250.50
2022-07-30T23:48:01.932Z,101247.50
2022-07-30T23:50:30.631Z,101247.81
2022-07-30T23:52:58.492Z,101242.81
2022-07-30T23:55:27.276Z,101249.44
2022-07-30T23:57:56.801Z,101245.28
